<?xml version="1.0" encoding="UTF-8" standalone="no" ?>
<gpx xmlns="http://www.topografix.com/GPX/1/1" xmlns:xsi="http://www.w3.org/2001/XMLSchema-instance" xsi:schemaLocation="http://www.topografix.com/GPX/1/1 http://www.topografix.com/GPX/1/1/gpx.xsd" version="1.1" creator="VisuGPX - https://www.visugpx.com">
  <metadata>
    <name>ASLPM marche Puyravault le 19 octobre 2015</name>
    <desc><![CDATA[ASLPM marche Puyravault le 19 Octobre 2015
]]></desc>
  </metadata>
  <trk>
    <name><![CDATA[19/10/2015 09:05:36]]></name>
    <trkseg>
      <trkpt lat="46.37483" lon="-1.09009">
        <ele>2.7</ele>
        <time>2015-10-19T07:05:36Z</time>
      </trkpt>
      <trkpt lat="46.37482" lon="-1.09007">
        <ele>2.5</ele>
        <time>2015-10-19T07:05:38Z</time>
      </trkpt>
      <trkpt lat="46.37482" lon="-1.09005">
        <ele>2.4</ele>
        <time>2015-10-19T07:05:39Z</time>
      </trkpt>
      <trkpt lat="46.37482" lon="-1.09">
        <ele>2</ele>
        <time>2015-10-19T07:05:42Z</time>
      </trkpt>
      <trkpt lat="46.37473" lon="-1.08981">
        <ele>3.4</ele>
        <time>2015-10-19T07:06:03Z</time>
      </trkpt>
      <trkpt lat="46.37455" lon="-1.08975">
        <ele>3.2</ele>
        <time>2015-10-19T07:06:23Z</time>
      </trkpt>
      <trkpt lat="46.37436" lon="-1.08974">
        <ele>3</ele>
        <time>2015-10-19T07:06:40Z</time>
      </trkpt>
      <trkpt lat="46.37417" lon="-1.08971">
        <ele>3</ele>
        <time>2015-10-19T07:06:55Z</time>
      </trkpt>
      <trkpt lat="46.37399" lon="-1.08967">
        <ele>2.5</ele>
        <time>2015-10-19T07:07:10Z</time>
      </trkpt>
      <trkpt lat="46.37381" lon="-1.08966">
        <ele>2.2</ele>
        <time>2015-10-19T07:07:23Z</time>
      </trkpt>
      <trkpt lat="46.37366" lon="-1.0896">
        <ele>2.4</ele>
        <time>2015-10-19T07:07:35Z</time>
      </trkpt>
      <trkpt lat="46.37357" lon="-1.08958">
        <ele>2.5</ele>
        <time>2015-10-19T07:07:43Z</time>
      </trkpt>
      <trkpt lat="46.37338" lon="-1.08955">
        <ele>2.6</ele>
        <time>2015-10-19T07:07:58Z</time>
      </trkpt>
      <trkpt lat="46.3732" lon="-1.08951">
        <ele>2.9</ele>
        <time>2015-10-19T07:08:12Z</time>
      </trkpt>
      <trkpt lat="46.37301" lon="-1.08947">
        <ele>3</ele>
        <time>2015-10-19T07:08:27Z</time>
      </trkpt>
      <trkpt lat="46.37282" lon="-1.08942">
        <ele>2.9</ele>
        <time>2015-10-19T07:08:39Z</time>
      </trkpt>
      <trkpt lat="46.37264" lon="-1.08938">
        <ele>2.4</ele>
        <time>2015-10-19T07:08:51Z</time>
      </trkpt>
      <trkpt lat="46.37245" lon="-1.08933">
        <ele>2</ele>
        <time>2015-10-19T07:09:04Z</time>
      </trkpt>
      <trkpt lat="46.37227" lon="-1.08928">
        <ele>2</ele>
        <time>2015-10-19T07:09:18Z</time>
      </trkpt>
      <trkpt lat="46.37209" lon="-1.08925">
        <ele>2</ele>
        <time>2015-10-19T07:09:32Z</time>
      </trkpt>
      <trkpt lat="46.37194" lon="-1.08922">
        <ele>2</ele>
        <time>2015-10-19T07:09:43Z</time>
      </trkpt>
      <trkpt lat="46.37176" lon="-1.08919">
        <ele>2</ele>
        <time>2015-10-19T07:09:59Z</time>
      </trkpt>
      <trkpt lat="46.37158" lon="-1.08913">
        <ele>2</ele>
        <time>2015-10-19T07:10:12Z</time>
      </trkpt>
      <trkpt lat="46.37139" lon="-1.08909">
        <ele>2</ele>
        <time>2015-10-19T07:10:26Z</time>
      </trkpt>
      <trkpt lat="46.37131" lon="-1.08909">
        <ele>2</ele>
        <time>2015-10-19T07:10:33Z</time>
      </trkpt>
      <trkpt lat="46.37112" lon="-1.08904">
        <ele>2</ele>
        <time>2015-10-19T07:10:48Z</time>
      </trkpt>
      <trkpt lat="46.37093" lon="-1.089">
        <ele>2.1</ele>
        <time>2015-10-19T07:11:04Z</time>
      </trkpt>
      <trkpt lat="46.37092" lon="-1.089">
        <ele>2.1</ele>
        <time>2015-10-19T07:11:05Z</time>
      </trkpt>
      <trkpt lat="46.37074" lon="-1.08895">
        <ele>2.7</ele>
        <time>2015-10-19T07:11:19Z</time>
      </trkpt>
      <trkpt lat="46.37056" lon="-1.0889">
        <ele>3</ele>
        <time>2015-10-19T07:11:34Z</time>
      </trkpt>
      <trkpt lat="46.37038" lon="-1.08888">
        <ele>2.4</ele>
        <time>2015-10-19T07:11:49Z</time>
      </trkpt>
      <trkpt lat="46.3702" lon="-1.08883">
        <ele>1.8</ele>
        <time>2015-10-19T07:12:03Z</time>
      </trkpt>
      <trkpt lat="46.37001" lon="-1.08879">
        <ele>1.4</ele>
        <time>2015-10-19T07:12:18Z</time>
      </trkpt>
      <trkpt lat="46.36983" lon="-1.08874">
        <ele>1.8</ele>
        <time>2015-10-19T07:12:31Z</time>
      </trkpt>
      <trkpt lat="46.36965" lon="-1.08872">
        <ele>2.1</ele>
        <time>2015-10-19T07:12:45Z</time>
      </trkpt>
      <trkpt lat="46.36946" lon="-1.08868">
        <ele>2.2</ele>
        <time>2015-10-19T07:13:00Z</time>
      </trkpt>
      <trkpt lat="46.3693" lon="-1.08864">
        <ele>2.1</ele>
        <time>2015-10-19T07:13:12Z</time>
      </trkpt>
      <trkpt lat="46.36924" lon="-1.08862">
        <ele>2</ele>
        <time>2015-10-19T07:13:17Z</time>
      </trkpt>
      <trkpt lat="46.36905" lon="-1.08858">
        <ele>1.6</ele>
        <time>2015-10-19T07:13:31Z</time>
      </trkpt>
      <trkpt lat="46.36886" lon="-1.08855">
        <ele>1.2</ele>
        <time>2015-10-19T07:13:45Z</time>
      </trkpt>
      <trkpt lat="46.36872" lon="-1.08852">
        <ele>1.3</ele>
        <time>2015-10-19T07:13:58Z</time>
      </trkpt>
      <trkpt lat="46.36871" lon="-1.08851">
        <ele>1.4</ele>
        <time>2015-10-19T07:14:00Z</time>
      </trkpt>
      <trkpt lat="46.36865" lon="-1.08851">
        <ele>1.4</ele>
        <time>2015-10-19T07:14:04Z</time>
      </trkpt>
      <trkpt lat="46.36847" lon="-1.08847">
        <ele>1.5</ele>
        <time>2015-10-19T07:14:17Z</time>
      </trkpt>
      <trkpt lat="46.36828" lon="-1.08843">
        <ele>1.7</ele>
        <time>2015-10-19T07:14:31Z</time>
      </trkpt>
      <trkpt lat="46.36809" lon="-1.08839">
        <ele>2</ele>
        <time>2015-10-19T07:14:46Z</time>
      </trkpt>
      <trkpt lat="46.3679" lon="-1.08834">
        <ele>2</ele>
        <time>2015-10-19T07:14:59Z</time>
      </trkpt>
      <trkpt lat="46.36772" lon="-1.08833">
        <ele>1.8</ele>
        <time>2015-10-19T07:15:13Z</time>
      </trkpt>
      <trkpt lat="46.36754" lon="-1.0883">
        <ele>1.3</ele>
        <time>2015-10-19T07:15:27Z</time>
      </trkpt>
      <trkpt lat="46.36736" lon="-1.08826">
        <ele>1.3</ele>
        <time>2015-10-19T07:15:40Z</time>
      </trkpt>
      <trkpt lat="46.36718" lon="-1.08821">
        <ele>1.5</ele>
        <time>2015-10-19T07:15:53Z</time>
      </trkpt>
      <trkpt lat="46.367" lon="-1.08817">
        <ele>1.9</ele>
        <time>2015-10-19T07:16:06Z</time>
      </trkpt>
      <trkpt lat="46.36681" lon="-1.08813">
        <ele>2.1</ele>
        <time>2015-10-19T07:16:20Z</time>
      </trkpt>
      <trkpt lat="46.36662" lon="-1.08812">
        <ele>2.1</ele>
        <time>2015-10-19T07:16:33Z</time>
      </trkpt>
      <trkpt lat="46.36643" lon="-1.08808">
        <ele>1.3</ele>
        <time>2015-10-19T07:16:45Z</time>
      </trkpt>
      <trkpt lat="46.36624" lon="-1.08804">
        <ele>1.1</ele>
        <time>2015-10-19T07:16:57Z</time>
      </trkpt>
      <trkpt lat="46.36606" lon="-1.08799">
        <ele>1.4</ele>
        <time>2015-10-19T07:17:09Z</time>
      </trkpt>
      <trkpt lat="46.36586" lon="-1.08795">
        <ele>1.9</ele>
        <time>2015-10-19T07:17:23Z</time>
      </trkpt>
      <trkpt lat="46.36581" lon="-1.08793">
        <ele>2</ele>
        <time>2015-10-19T07:17:27Z</time>
      </trkpt>
      <trkpt lat="46.36563" lon="-1.0879">
        <ele>2</ele>
        <time>2015-10-19T07:17:41Z</time>
      </trkpt>
      <trkpt lat="46.3656" lon="-1.08789">
        <ele>2</ele>
        <time>2015-10-19T07:17:43Z</time>
      </trkpt>
      <trkpt lat="46.36546" lon="-1.08787">
        <ele>2</ele>
        <time>2015-10-19T07:17:53Z</time>
      </trkpt>
      <trkpt lat="46.36541" lon="-1.08785">
        <ele>2</ele>
        <time>2015-10-19T07:17:57Z</time>
      </trkpt>
      <trkpt lat="46.36522" lon="-1.08782">
        <ele>2</ele>
        <time>2015-10-19T07:18:12Z</time>
      </trkpt>
      <trkpt lat="46.36503" lon="-1.08777">
        <ele>2</ele>
        <time>2015-10-19T07:18:26Z</time>
      </trkpt>
      <trkpt lat="46.36485" lon="-1.08773">
        <ele>1.6</ele>
        <time>2015-10-19T07:18:39Z</time>
      </trkpt>
      <trkpt lat="46.36466" lon="-1.0877">
        <ele>1.3</ele>
        <time>2015-10-19T07:18:57Z</time>
      </trkpt>
      <trkpt lat="46.36448" lon="-1.08766">
        <ele>1.4</ele>
        <time>2015-10-19T07:19:10Z</time>
      </trkpt>
      <trkpt lat="46.3643" lon="-1.08762">
        <ele>1.6</ele>
        <time>2015-10-19T07:19:26Z</time>
      </trkpt>
      <trkpt lat="46.36411" lon="-1.08759">
        <ele>1.7</ele>
        <time>2015-10-19T07:19:40Z</time>
      </trkpt>
      <trkpt lat="46.36392" lon="-1.08755">
        <ele>2</ele>
        <time>2015-10-19T07:19:55Z</time>
      </trkpt>
      <trkpt lat="46.36374" lon="-1.08751">
        <ele>2</ele>
        <time>2015-10-19T07:20:08Z</time>
      </trkpt>
      <trkpt lat="46.36356" lon="-1.08748">
        <ele>2</ele>
        <time>2015-10-19T07:20:22Z</time>
      </trkpt>
      <trkpt lat="46.36337" lon="-1.08744">
        <ele>2</ele>
        <time>2015-10-19T07:20:37Z</time>
      </trkpt>
      <trkpt lat="46.36335" lon="-1.08743">
        <ele>2</ele>
        <time>2015-10-19T07:20:39Z</time>
      </trkpt>
      <trkpt lat="46.36316" lon="-1.0874">
        <ele>1.6</ele>
        <time>2015-10-19T07:20:53Z</time>
      </trkpt>
      <trkpt lat="46.36298" lon="-1.08738">
        <ele>1.4</ele>
        <time>2015-10-19T07:21:06Z</time>
      </trkpt>
      <trkpt lat="46.36279" lon="-1.08736">
        <ele>1.5</ele>
        <time>2015-10-19T07:21:20Z</time>
      </trkpt>
      <trkpt lat="46.3626" lon="-1.08733">
        <ele>2.5</ele>
        <time>2015-10-19T07:21:34Z</time>
      </trkpt>
      <trkpt lat="46.36249" lon="-1.08731">
        <ele>3</ele>
        <time>2015-10-19T07:21:42Z</time>
      </trkpt>
      <trkpt lat="46.36243" lon="-1.08729">
        <ele>2.8</ele>
        <time>2015-10-19T07:21:50Z</time>
      </trkpt>
      <trkpt lat="46.36243" lon="-1.08722">
        <ele>2.7</ele>
        <time>2015-10-19T07:23:33Z</time>
      </trkpt>
      <trkpt lat="46.3624" lon="-1.08722">
        <ele>2.6</ele>
        <time>2015-10-19T07:23:37Z</time>
      </trkpt>
      <trkpt lat="46.36225" lon="-1.08723">
        <ele>2.1</ele>
        <time>2015-10-19T07:24:05Z</time>
      </trkpt>
      <trkpt lat="46.36208" lon="-1.08717">
        <ele>1.6</ele>
        <time>2015-10-19T07:24:23Z</time>
      </trkpt>
      <trkpt lat="46.36207" lon="-1.08717">
        <ele>1.6</ele>
        <time>2015-10-19T07:24:24Z</time>
      </trkpt>
      <trkpt lat="46.36189" lon="-1.08712">
        <ele>1.4</ele>
        <time>2015-10-19T07:24:39Z</time>
      </trkpt>
      <trkpt lat="46.3617" lon="-1.08711">
        <ele>1.4</ele>
        <time>2015-10-19T07:24:53Z</time>
      </trkpt>
      <trkpt lat="46.36151" lon="-1.08708">
        <ele>1.8</ele>
        <time>2015-10-19T07:25:07Z</time>
      </trkpt>
      <trkpt lat="46.36133" lon="-1.08705">
        <ele>2</ele>
        <time>2015-10-19T07:25:20Z</time>
      </trkpt>
      <trkpt lat="46.36114" lon="-1.08702">
        <ele>2</ele>
        <time>2015-10-19T07:25:33Z</time>
      </trkpt>
      <trkpt lat="46.36095" lon="-1.087">
        <ele>1.6</ele>
        <time>2015-10-19T07:25:48Z</time>
      </trkpt>
      <trkpt lat="46.36076" lon="-1.08694">
        <ele>1</ele>
        <time>2015-10-19T07:26:04Z</time>
      </trkpt>
      <trkpt lat="46.36059" lon="-1.08685">
        <ele>1.4</ele>
        <time>2015-10-19T07:26:18Z</time>
      </trkpt>
      <trkpt lat="46.36041" lon="-1.08684">
        <ele>1.4</ele>
        <time>2015-10-19T07:26:32Z</time>
      </trkpt>
      <trkpt lat="46.36023" lon="-1.0868">
        <ele>1.5</ele>
        <time>2015-10-19T07:26:45Z</time>
      </trkpt>
      <trkpt lat="46.36005" lon="-1.08677">
        <ele>1.6</ele>
        <time>2015-10-19T07:26:58Z</time>
      </trkpt>
      <trkpt lat="46.35986" lon="-1.08673">
        <ele>1.9</ele>
        <time>2015-10-19T07:27:13Z</time>
      </trkpt>
      <trkpt lat="46.35968" lon="-1.0867">
        <ele>2</ele>
        <time>2015-10-19T07:27:27Z</time>
      </trkpt>
      <trkpt lat="46.35949" lon="-1.08665">
        <ele>2</ele>
        <time>2015-10-19T07:27:42Z</time>
      </trkpt>
      <trkpt lat="46.35931" lon="-1.08663">
        <ele>2</ele>
        <time>2015-10-19T07:27:56Z</time>
      </trkpt>
      <trkpt lat="46.35918" lon="-1.0866">
        <ele>2</ele>
        <time>2015-10-19T07:28:07Z</time>
      </trkpt>
      <trkpt lat="46.35899" lon="-1.08656">
        <ele>1.6</ele>
        <time>2015-10-19T07:28:22Z</time>
      </trkpt>
      <trkpt lat="46.35894" lon="-1.08655">
        <ele>1.5</ele>
        <time>2015-10-19T07:28:26Z</time>
      </trkpt>
      <trkpt lat="46.35889" lon="-1.08654">
        <ele>1.5</ele>
        <time>2015-10-19T07:28:30Z</time>
      </trkpt>
      <trkpt lat="46.35871" lon="-1.08651">
        <ele>1.9</ele>
        <time>2015-10-19T07:28:43Z</time>
      </trkpt>
      <trkpt lat="46.35852" lon="-1.08646">
        <ele>2.6</ele>
        <time>2015-10-19T07:28:56Z</time>
      </trkpt>
      <trkpt lat="46.35834" lon="-1.08642">
        <ele>2.9</ele>
        <time>2015-10-19T07:29:09Z</time>
      </trkpt>
      <trkpt lat="46.35816" lon="-1.08638">
        <ele>3</ele>
        <time>2015-10-19T07:29:22Z</time>
      </trkpt>
      <trkpt lat="46.35797" lon="-1.08636">
        <ele>2.6</ele>
        <time>2015-10-19T07:29:37Z</time>
      </trkpt>
      <trkpt lat="46.35779" lon="-1.08631">
        <ele>2</ele>
        <time>2015-10-19T07:29:51Z</time>
      </trkpt>
      <trkpt lat="46.35769" lon="-1.08626">
        <ele>2</ele>
        <time>2015-10-19T07:29:59Z</time>
      </trkpt>
      <trkpt lat="46.3575" lon="-1.08622">
        <ele>2.2</ele>
        <time>2015-10-19T07:30:13Z</time>
      </trkpt>
      <trkpt lat="46.35731" lon="-1.0862">
        <ele>1.9</ele>
        <time>2015-10-19T07:30:28Z</time>
      </trkpt>
      <trkpt lat="46.35713" lon="-1.08619">
        <ele>2</ele>
        <time>2015-10-19T07:30:42Z</time>
      </trkpt>
      <trkpt lat="46.35695" lon="-1.08615">
        <ele>2.9</ele>
        <time>2015-10-19T07:30:56Z</time>
      </trkpt>
      <trkpt lat="46.35677" lon="-1.0861">
        <ele>2.4</ele>
        <time>2015-10-19T07:31:09Z</time>
      </trkpt>
      <trkpt lat="46.35658" lon="-1.08607">
        <ele>2</ele>
        <time>2015-10-19T07:31:23Z</time>
      </trkpt>
      <trkpt lat="46.35639" lon="-1.08605">
        <ele>2</ele>
        <time>2015-10-19T07:31:38Z</time>
      </trkpt>
      <trkpt lat="46.35621" lon="-1.08601">
        <ele>1.6</ele>
        <time>2015-10-19T07:31:52Z</time>
      </trkpt>
      <trkpt lat="46.35602" lon="-1.08598">
        <ele>1.5</ele>
        <time>2015-10-19T07:32:06Z</time>
      </trkpt>
      <trkpt lat="46.35584" lon="-1.08593">
        <ele>1.6</ele>
        <time>2015-10-19T07:32:20Z</time>
      </trkpt>
      <trkpt lat="46.35566" lon="-1.08589">
        <ele>1.9</ele>
        <time>2015-10-19T07:32:34Z</time>
      </trkpt>
      <trkpt lat="46.35546" lon="-1.08585">
        <ele>2.3</ele>
        <time>2015-10-19T07:32:48Z</time>
      </trkpt>
      <trkpt lat="46.35528" lon="-1.08581">
        <ele>2.9</ele>
        <time>2015-10-19T07:33:02Z</time>
      </trkpt>
      <trkpt lat="46.35509" lon="-1.08578">
        <ele>2.2</ele>
        <time>2015-10-19T07:33:17Z</time>
      </trkpt>
      <trkpt lat="46.35491" lon="-1.08571">
        <ele>2</ele>
        <time>2015-10-19T07:33:32Z</time>
      </trkpt>
      <trkpt lat="46.35491" lon="-1.0857">
        <ele>2</ele>
        <time>2015-10-19T07:33:33Z</time>
      </trkpt>
      <trkpt lat="46.3549" lon="-1.08555">
        <ele>2.3</ele>
        <time>2015-10-19T07:33:41Z</time>
      </trkpt>
      <trkpt lat="46.35493" lon="-1.08528">
        <ele>1.3</ele>
        <time>2015-10-19T07:33:54Z</time>
      </trkpt>
      <trkpt lat="46.35494" lon="-1.08501">
        <ele>1.2</ele>
        <time>2015-10-19T07:34:08Z</time>
      </trkpt>
      <trkpt lat="46.35495" lon="-1.08475">
        <ele>1.2</ele>
        <time>2015-10-19T07:34:21Z</time>
      </trkpt>
      <trkpt lat="46.35497" lon="-1.08448">
        <ele>1.9</ele>
        <time>2015-10-19T07:34:35Z</time>
      </trkpt>
      <trkpt lat="46.35498" lon="-1.08421">
        <ele>2</ele>
        <time>2015-10-19T07:34:49Z</time>
      </trkpt>
      <trkpt lat="46.35499" lon="-1.08393">
        <ele>2</ele>
        <time>2015-10-19T07:35:03Z</time>
      </trkpt>
      <trkpt lat="46.35501" lon="-1.08367">
        <ele>2</ele>
        <time>2015-10-19T07:35:16Z</time>
      </trkpt>
      <trkpt lat="46.35503" lon="-1.08341">
        <ele>2</ele>
        <time>2015-10-19T07:35:30Z</time>
      </trkpt>
      <trkpt lat="46.35506" lon="-1.08315">
        <ele>2</ele>
        <time>2015-10-19T07:35:43Z</time>
      </trkpt>
      <trkpt lat="46.35506" lon="-1.08288">
        <ele>2.5</ele>
        <time>2015-10-19T07:35:57Z</time>
      </trkpt>
      <trkpt lat="46.35509" lon="-1.08261">
        <ele>2.3</ele>
        <time>2015-10-19T07:36:11Z</time>
      </trkpt>
      <trkpt lat="46.35509" lon="-1.08251">
        <ele>2</ele>
        <time>2015-10-19T07:36:16Z</time>
      </trkpt>
      <trkpt lat="46.3551" lon="-1.08242">
        <ele>2</ele>
        <time>2015-10-19T07:36:21Z</time>
      </trkpt>
      <trkpt lat="46.35511" lon="-1.08215">
        <ele>2</ele>
        <time>2015-10-19T07:36:35Z</time>
      </trkpt>
      <trkpt lat="46.35511" lon="-1.08188">
        <ele>2</ele>
        <time>2015-10-19T07:36:49Z</time>
      </trkpt>
      <trkpt lat="46.35514" lon="-1.08163">
        <ele>2</ele>
        <time>2015-10-19T07:37:03Z</time>
      </trkpt>
      <trkpt lat="46.35516" lon="-1.08151">
        <ele>2</ele>
        <time>2015-10-19T07:37:09Z</time>
      </trkpt>
      <trkpt lat="46.35518" lon="-1.08125">
        <ele>2</ele>
        <time>2015-10-19T07:37:23Z</time>
      </trkpt>
      <trkpt lat="46.35519" lon="-1.08098">
        <ele>2</ele>
        <time>2015-10-19T07:37:37Z</time>
      </trkpt>
      <trkpt lat="46.35519" lon="-1.08071">
        <ele>2</ele>
        <time>2015-10-19T07:37:52Z</time>
      </trkpt>
      <trkpt lat="46.3552" lon="-1.08043">
        <ele>1.7</ele>
        <time>2015-10-19T07:38:06Z</time>
      </trkpt>
      <trkpt lat="46.3552" lon="-1.08016">
        <ele>1.3</ele>
        <time>2015-10-19T07:38:20Z</time>
      </trkpt>
      <trkpt lat="46.35522" lon="-1.07988">
        <ele>1.2</ele>
        <time>2015-10-19T07:38:34Z</time>
      </trkpt>
      <trkpt lat="46.35523" lon="-1.07961">
        <ele>1.2</ele>
        <time>2015-10-19T07:38:48Z</time>
      </trkpt>
      <trkpt lat="46.35524" lon="-1.07934">
        <ele>1.5</ele>
        <time>2015-10-19T07:39:01Z</time>
      </trkpt>
      <trkpt lat="46.35526" lon="-1.07907">
        <ele>2</ele>
        <time>2015-10-19T07:39:15Z</time>
      </trkpt>
      <trkpt lat="46.35529" lon="-1.07879">
        <ele>2</ele>
        <time>2015-10-19T07:39:29Z</time>
      </trkpt>
      <trkpt lat="46.3553" lon="-1.07852">
        <ele>2</ele>
        <time>2015-10-19T07:39:42Z</time>
      </trkpt>
      <trkpt lat="46.3553" lon="-1.07825">
        <ele>2</ele>
        <time>2015-10-19T07:39:54Z</time>
      </trkpt>
      <trkpt lat="46.35531" lon="-1.07797">
        <ele>2</ele>
        <time>2015-10-19T07:40:06Z</time>
      </trkpt>
      <trkpt lat="46.3553" lon="-1.0777">
        <ele>2</ele>
        <time>2015-10-19T07:40:17Z</time>
      </trkpt>
      <trkpt lat="46.35531" lon="-1.07743">
        <ele>2</ele>
        <time>2015-10-19T07:40:29Z</time>
      </trkpt>
      <trkpt lat="46.35532" lon="-1.07716">
        <ele>2</ele>
        <time>2015-10-19T07:40:41Z</time>
      </trkpt>
      <trkpt lat="46.35534" lon="-1.07689">
        <ele>2</ele>
        <time>2015-10-19T07:40:54Z</time>
      </trkpt>
      <trkpt lat="46.35536" lon="-1.07661">
        <ele>2</ele>
        <time>2015-10-19T07:41:06Z</time>
      </trkpt>
      <trkpt lat="46.35537" lon="-1.07633">
        <ele>2</ele>
        <time>2015-10-19T07:41:19Z</time>
      </trkpt>
      <trkpt lat="46.35538" lon="-1.07606">
        <ele>2</ele>
        <time>2015-10-19T07:41:33Z</time>
      </trkpt>
      <trkpt lat="46.35538" lon="-1.07604">
        <ele>2</ele>
        <time>2015-10-19T07:41:34Z</time>
      </trkpt>
      <trkpt lat="46.3554" lon="-1.07576">
        <ele>2</ele>
        <time>2015-10-19T07:41:47Z</time>
      </trkpt>
      <trkpt lat="46.35539" lon="-1.07549">
        <ele>2</ele>
        <time>2015-10-19T07:42:01Z</time>
      </trkpt>
      <trkpt lat="46.35543" lon="-1.07522">
        <ele>1.9</ele>
        <time>2015-10-19T07:42:15Z</time>
      </trkpt>
      <trkpt lat="46.35546" lon="-1.07496">
        <ele>1.3</ele>
        <time>2015-10-19T07:42:28Z</time>
      </trkpt>
      <trkpt lat="46.35549" lon="-1.07469">
        <ele>1.3</ele>
        <time>2015-10-19T07:42:40Z</time>
      </trkpt>
      <trkpt lat="46.3555" lon="-1.07442">
        <ele>1.2</ele>
        <time>2015-10-19T07:42:52Z</time>
      </trkpt>
      <trkpt lat="46.3555" lon="-1.07415">
        <ele>1.3</ele>
        <time>2015-10-19T07:43:05Z</time>
      </trkpt>
      <trkpt lat="46.3555" lon="-1.07394">
        <ele>1.9</ele>
        <time>2015-10-19T07:43:15Z</time>
      </trkpt>
      <trkpt lat="46.35553" lon="-1.07366">
        <ele>2</ele>
        <time>2015-10-19T07:43:28Z</time>
      </trkpt>
      <trkpt lat="46.35555" lon="-1.07338">
        <ele>2</ele>
        <time>2015-10-19T07:43:40Z</time>
      </trkpt>
      <trkpt lat="46.35556" lon="-1.07309">
        <ele>2</ele>
        <time>2015-10-19T07:43:52Z</time>
      </trkpt>
      <trkpt lat="46.35557" lon="-1.07283">
        <ele>2</ele>
        <time>2015-10-19T07:44:04Z</time>
      </trkpt>
      <trkpt lat="46.35558" lon="-1.07256">
        <ele>2</ele>
        <time>2015-10-19T07:44:16Z</time>
      </trkpt>
      <trkpt lat="46.3556" lon="-1.07229">
        <ele>2</ele>
        <time>2015-10-19T07:44:29Z</time>
      </trkpt>
      <trkpt lat="46.3556" lon="-1.07202">
        <ele>2</ele>
        <time>2015-10-19T07:44:42Z</time>
      </trkpt>
      <trkpt lat="46.35563" lon="-1.07176">
        <ele>2</ele>
        <time>2015-10-19T07:44:54Z</time>
      </trkpt>
      <trkpt lat="46.35564" lon="-1.07149">
        <ele>2</ele>
        <time>2015-10-19T07:45:06Z</time>
      </trkpt>
      <trkpt lat="46.35563" lon="-1.07146">
        <ele>2</ele>
        <time>2015-10-19T07:45:09Z</time>
      </trkpt>
      <trkpt lat="46.35565" lon="-1.07119">
        <ele>2</ele>
        <time>2015-10-19T07:45:24Z</time>
      </trkpt>
      <trkpt lat="46.35567" lon="-1.07093">
        <ele>2</ele>
        <time>2015-10-19T07:45:36Z</time>
      </trkpt>
      <trkpt lat="46.35568" lon="-1.07065">
        <ele>2</ele>
        <time>2015-10-19T07:45:49Z</time>
      </trkpt>
      <trkpt lat="46.35569" lon="-1.07039">
        <ele>2</ele>
        <time>2015-10-19T07:46:02Z</time>
      </trkpt>
      <trkpt lat="46.3557" lon="-1.07012">
        <ele>2</ele>
        <time>2015-10-19T07:46:15Z</time>
      </trkpt>
      <trkpt lat="46.35573" lon="-1.06985">
        <ele>1.7</ele>
        <time>2015-10-19T07:46:28Z</time>
      </trkpt>
      <trkpt lat="46.35572" lon="-1.06958">
        <ele>1.4</ele>
        <time>2015-10-19T07:46:41Z</time>
      </trkpt>
      <trkpt lat="46.35575" lon="-1.0693">
        <ele>1.3</ele>
        <time>2015-10-19T07:46:54Z</time>
      </trkpt>
      <trkpt lat="46.35577" lon="-1.06916">
        <ele>1.2</ele>
        <time>2015-10-19T07:47:01Z</time>
      </trkpt>
      <trkpt lat="46.35579" lon="-1.06906">
        <ele>1.2</ele>
        <time>2015-10-19T07:47:06Z</time>
      </trkpt>
      <trkpt lat="46.3558" lon="-1.06878">
        <ele>1.5</ele>
        <time>2015-10-19T07:47:19Z</time>
      </trkpt>
      <trkpt lat="46.35579" lon="-1.06864">
        <ele>1.9</ele>
        <time>2015-10-19T07:47:26Z</time>
      </trkpt>
      <trkpt lat="46.35578" lon="-1.06853">
        <ele>2</ele>
        <time>2015-10-19T07:47:32Z</time>
      </trkpt>
      <trkpt lat="46.35578" lon="-1.06827">
        <ele>2</ele>
        <time>2015-10-19T07:47:44Z</time>
      </trkpt>
      <trkpt lat="46.35578" lon="-1.06823">
        <ele>2</ele>
        <time>2015-10-19T07:47:46Z</time>
      </trkpt>
      <trkpt lat="46.35578" lon="-1.06796">
        <ele>2</ele>
        <time>2015-10-19T07:47:59Z</time>
      </trkpt>
      <trkpt lat="46.35581" lon="-1.06769">
        <ele>2</ele>
        <time>2015-10-19T07:48:12Z</time>
      </trkpt>
      <trkpt lat="46.35584" lon="-1.06743">
        <ele>2.3</ele>
        <time>2015-10-19T07:48:25Z</time>
      </trkpt>
      <trkpt lat="46.35585" lon="-1.06722">
        <ele>2.9</ele>
        <time>2015-10-19T07:48:35Z</time>
      </trkpt>
      <trkpt lat="46.35586" lon="-1.06709">
        <ele>2.9</ele>
        <time>2015-10-19T07:48:41Z</time>
      </trkpt>
      <trkpt lat="46.35588" lon="-1.06683">
        <ele>2.8</ele>
        <time>2015-10-19T07:48:54Z</time>
      </trkpt>
      <trkpt lat="46.3559" lon="-1.06655">
        <ele>2.8</ele>
        <time>2015-10-19T07:49:07Z</time>
      </trkpt>
      <trkpt lat="46.35591" lon="-1.06629">
        <ele>2.7</ele>
        <time>2015-10-19T07:49:19Z</time>
      </trkpt>
      <trkpt lat="46.3559" lon="-1.06601">
        <ele>2.5</ele>
        <time>2015-10-19T07:49:32Z</time>
      </trkpt>
      <trkpt lat="46.35591" lon="-1.06575">
        <ele>2</ele>
        <time>2015-10-19T07:49:44Z</time>
      </trkpt>
      <trkpt lat="46.35593" lon="-1.06549">
        <ele>2</ele>
        <time>2015-10-19T07:49:57Z</time>
      </trkpt>
      <trkpt lat="46.35593" lon="-1.06547">
        <ele>2</ele>
        <time>2015-10-19T07:49:58Z</time>
      </trkpt>
      <trkpt lat="46.35592" lon="-1.06536">
        <ele>2</ele>
        <time>2015-10-19T07:50:04Z</time>
      </trkpt>
      <trkpt lat="46.35592" lon="-1.06521">
        <ele>2</ele>
        <time>2015-10-19T07:50:14Z</time>
      </trkpt>
      <trkpt lat="46.35595" lon="-1.06497">
        <ele>2</ele>
        <time>2015-10-19T07:50:28Z</time>
      </trkpt>
      <trkpt lat="46.35597" lon="-1.06478">
        <ele>2</ele>
        <time>2015-10-19T07:50:43Z</time>
      </trkpt>
      <trkpt lat="46.35598" lon="-1.06467">
        <ele>2</ele>
        <time>2015-10-19T07:50:54Z</time>
      </trkpt>
      <trkpt lat="46.35597" lon="-1.06458">
        <ele>2</ele>
        <time>2015-10-19T07:50:59Z</time>
      </trkpt>
      <trkpt lat="46.35595" lon="-1.06445">
        <ele>2</ele>
        <time>2015-10-19T07:51:08Z</time>
      </trkpt>
      <trkpt lat="46.35596" lon="-1.06444">
        <ele>2</ele>
        <time>2015-10-19T07:51:40Z</time>
      </trkpt>
      <trkpt lat="46.35608" lon="-1.06435">
        <ele>2</ele>
        <time>2015-10-19T07:51:50Z</time>
      </trkpt>
      <trkpt lat="46.35611" lon="-1.06434">
        <ele>2</ele>
        <time>2015-10-19T07:51:52Z</time>
      </trkpt>
      <trkpt lat="46.35613" lon="-1.06436">
        <ele>2</ele>
        <time>2015-10-19T07:51:54Z</time>
      </trkpt>
      <trkpt lat="46.35618" lon="-1.06459">
        <ele>2</ele>
        <time>2015-10-19T07:52:07Z</time>
      </trkpt>
      <trkpt lat="46.35618" lon="-1.06474">
        <ele>2</ele>
        <time>2015-10-19T07:52:16Z</time>
      </trkpt>
      <trkpt lat="46.35615" lon="-1.06501">
        <ele>2</ele>
        <time>2015-10-19T07:52:29Z</time>
      </trkpt>
      <trkpt lat="46.35615" lon="-1.06527">
        <ele>2</ele>
        <time>2015-10-19T07:52:41Z</time>
      </trkpt>
      <trkpt lat="46.35625" lon="-1.06534">
        <ele>2</ele>
        <time>2015-10-19T07:52:52Z</time>
      </trkpt>
      <trkpt lat="46.35624" lon="-1.06533">
        <ele>2</ele>
        <time>2015-10-19T07:53:24Z</time>
      </trkpt>
      <trkpt lat="46.35615" lon="-1.06535">
        <ele>2</ele>
        <time>2015-10-19T07:53:30Z</time>
      </trkpt>
      <trkpt lat="46.35611" lon="-1.06509">
        <ele>2</ele>
        <time>2015-10-19T07:53:45Z</time>
      </trkpt>
      <trkpt lat="46.35612" lon="-1.06493">
        <ele>2</ele>
        <time>2015-10-19T07:53:52Z</time>
      </trkpt>
      <trkpt lat="46.35613" lon="-1.06476">
        <ele>2</ele>
        <time>2015-10-19T07:54:00Z</time>
      </trkpt>
      <trkpt lat="46.35613" lon="-1.06474">
        <ele>2</ele>
        <time>2015-10-19T07:54:02Z</time>
      </trkpt>
      <trkpt lat="46.35616" lon="-1.06446">
        <ele>2</ele>
        <time>2015-10-19T07:54:18Z</time>
      </trkpt>
      <trkpt lat="46.35611" lon="-1.06433">
        <ele>2</ele>
        <time>2015-10-19T07:54:27Z</time>
      </trkpt>
      <trkpt lat="46.35605" lon="-1.06434">
        <ele>2</ele>
        <time>2015-10-19T07:54:31Z</time>
      </trkpt>
      <trkpt lat="46.35592" lon="-1.06444">
        <ele>2</ele>
        <time>2015-10-19T07:54:42Z</time>
      </trkpt>
      <trkpt lat="46.35594" lon="-1.06448">
        <ele>2</ele>
        <time>2015-10-19T07:58:05Z</time>
      </trkpt>
      <trkpt lat="46.35593" lon="-1.06442">
        <ele>2</ele>
        <time>2015-10-19T07:59:26Z</time>
      </trkpt>
      <trkpt lat="46.35579" lon="-1.0645">
        <ele>1.9</ele>
        <time>2015-10-19T08:00:17Z</time>
      </trkpt>
      <trkpt lat="46.35571" lon="-1.06454">
        <ele>1.7</ele>
        <time>2015-10-19T08:00:26Z</time>
      </trkpt>
      <trkpt lat="46.35553" lon="-1.06462">
        <ele>1.7</ele>
        <time>2015-10-19T08:00:41Z</time>
      </trkpt>
      <trkpt lat="46.35536" lon="-1.0647">
        <ele>2</ele>
        <time>2015-10-19T08:00:53Z</time>
      </trkpt>
      <trkpt lat="46.35518" lon="-1.06479">
        <ele>1.7</ele>
        <time>2015-10-19T08:01:03Z</time>
      </trkpt>
      <trkpt lat="46.355" lon="-1.06488">
        <ele>1.6</ele>
        <time>2015-10-19T08:01:17Z</time>
      </trkpt>
      <trkpt lat="46.35482" lon="-1.06498">
        <ele>2</ele>
        <time>2015-10-19T08:01:32Z</time>
      </trkpt>
      <trkpt lat="46.35465" lon="-1.06507">
        <ele>2.1</ele>
        <time>2015-10-19T08:01:45Z</time>
      </trkpt>
      <trkpt lat="46.35447" lon="-1.06516">
        <ele>2.5</ele>
        <time>2015-10-19T08:01:58Z</time>
      </trkpt>
      <trkpt lat="46.35429" lon="-1.06527">
        <ele>1.9</ele>
        <time>2015-10-19T08:02:10Z</time>
      </trkpt>
      <trkpt lat="46.35413" lon="-1.06537">
        <ele>1.4</ele>
        <time>2015-10-19T08:02:23Z</time>
      </trkpt>
      <trkpt lat="46.35396" lon="-1.06548">
        <ele>1.9</ele>
        <time>2015-10-19T08:02:37Z</time>
      </trkpt>
      <trkpt lat="46.35379" lon="-1.06559">
        <ele>1.7</ele>
        <time>2015-10-19T08:02:53Z</time>
      </trkpt>
      <trkpt lat="46.35362" lon="-1.06568">
        <ele>1.9</ele>
        <time>2015-10-19T08:03:07Z</time>
      </trkpt>
      <trkpt lat="46.35344" lon="-1.06578">
        <ele>2.7</ele>
        <time>2015-10-19T08:03:21Z</time>
      </trkpt>
      <trkpt lat="46.35331" lon="-1.06582">
        <ele>2.8</ele>
        <time>2015-10-19T08:04:05Z</time>
      </trkpt>
      <trkpt lat="46.3533" lon="-1.06578">
        <ele>2.6</ele>
        <time>2015-10-19T08:04:09Z</time>
      </trkpt>
      <trkpt lat="46.35329" lon="-1.06552">
        <ele>2.1</ele>
        <time>2015-10-19T08:04:28Z</time>
      </trkpt>
      <trkpt lat="46.35348" lon="-1.06544">
        <ele>1.7</ele>
        <time>2015-10-19T08:04:41Z</time>
      </trkpt>
      <trkpt lat="46.35365" lon="-1.06534">
        <ele>1.8</ele>
        <time>2015-10-19T08:04:53Z</time>
      </trkpt>
      <trkpt lat="46.35382" lon="-1.06526">
        <ele>2</ele>
        <time>2015-10-19T08:05:05Z</time>
      </trkpt>
      <trkpt lat="46.354" lon="-1.06517">
        <ele>1.9</ele>
        <time>2015-10-19T08:05:18Z</time>
      </trkpt>
      <trkpt lat="46.35417" lon="-1.06507">
        <ele>2.5</ele>
        <time>2015-10-19T08:05:32Z</time>
      </trkpt>
      <trkpt lat="46.35435" lon="-1.06498">
        <ele>2.3</ele>
        <time>2015-10-19T08:05:47Z</time>
      </trkpt>
      <trkpt lat="46.35452" lon="-1.06486">
        <ele>2</ele>
        <time>2015-10-19T08:06:01Z</time>
      </trkpt>
      <trkpt lat="46.35469" lon="-1.06477">
        <ele>2</ele>
        <time>2015-10-19T08:06:15Z</time>
      </trkpt>
      <trkpt lat="46.35487" lon="-1.06466">
        <ele>1.6</ele>
        <time>2015-10-19T08:06:29Z</time>
      </trkpt>
      <trkpt lat="46.35504" lon="-1.06456">
        <ele>1.6</ele>
        <time>2015-10-19T08:06:42Z</time>
      </trkpt>
      <trkpt lat="46.35522" lon="-1.06447">
        <ele>2</ele>
        <time>2015-10-19T08:06:56Z</time>
      </trkpt>
      <trkpt lat="46.35538" lon="-1.06437">
        <ele>1.7</ele>
        <time>2015-10-19T08:07:10Z</time>
      </trkpt>
      <trkpt lat="46.35556" lon="-1.06427">
        <ele>1.6</ele>
        <time>2015-10-19T08:07:24Z</time>
      </trkpt>
      <trkpt lat="46.35563" lon="-1.06422">
        <ele>1.9</ele>
        <time>2015-10-19T08:07:31Z</time>
      </trkpt>
      <trkpt lat="46.35569" lon="-1.06419">
        <ele>2</ele>
        <time>2015-10-19T08:07:37Z</time>
      </trkpt>
      <trkpt lat="46.35587" lon="-1.06411">
        <ele>2</ele>
        <time>2015-10-19T08:07:49Z</time>
      </trkpt>
      <trkpt lat="46.35604" lon="-1.06399">
        <ele>2</ele>
        <time>2015-10-19T08:08:03Z</time>
      </trkpt>
      <trkpt lat="46.35607" lon="-1.06397">
        <ele>2</ele>
        <time>2015-10-19T08:08:06Z</time>
      </trkpt>
      <trkpt lat="46.35625" lon="-1.06385">
        <ele>1.6</ele>
        <time>2015-10-19T08:08:20Z</time>
      </trkpt>
      <trkpt lat="46.35643" lon="-1.06378">
        <ele>1.4</ele>
        <time>2015-10-19T08:08:34Z</time>
      </trkpt>
      <trkpt lat="46.3566" lon="-1.06368">
        <ele>1.7</ele>
        <time>2015-10-19T08:08:48Z</time>
      </trkpt>
      <trkpt lat="46.35677" lon="-1.0636">
        <ele>1.6</ele>
        <time>2015-10-19T08:09:00Z</time>
      </trkpt>
      <trkpt lat="46.35695" lon="-1.06349">
        <ele>1.4</ele>
        <time>2015-10-19T08:09:15Z</time>
      </trkpt>
      <trkpt lat="46.35712" lon="-1.06338">
        <ele>1.9</ele>
        <time>2015-10-19T08:09:31Z</time>
      </trkpt>
      <trkpt lat="46.35729" lon="-1.06327">
        <ele>1.8</ele>
        <time>2015-10-19T08:09:49Z</time>
      </trkpt>
      <trkpt lat="46.35747" lon="-1.06318">
        <ele>1.6</ele>
        <time>2015-10-19T08:10:02Z</time>
      </trkpt>
      <trkpt lat="46.35764" lon="-1.06307">
        <ele>1.5</ele>
        <time>2015-10-19T08:10:15Z</time>
      </trkpt>
      <trkpt lat="46.35781" lon="-1.06297">
        <ele>1.3</ele>
        <time>2015-10-19T08:10:28Z</time>
      </trkpt>
      <trkpt lat="46.35799" lon="-1.06289">
        <ele>1.6</ele>
        <time>2015-10-19T08:10:42Z</time>
      </trkpt>
      <trkpt lat="46.35803" lon="-1.06286">
        <ele>1.7</ele>
        <time>2015-10-19T08:10:46Z</time>
      </trkpt>
      <trkpt lat="46.3582" lon="-1.06278">
        <ele>2</ele>
        <time>2015-10-19T08:11:00Z</time>
      </trkpt>
      <trkpt lat="46.35839" lon="-1.06269">
        <ele>2</ele>
        <time>2015-10-19T08:11:14Z</time>
      </trkpt>
      <trkpt lat="46.35856" lon="-1.06257">
        <ele>2</ele>
        <time>2015-10-19T08:11:28Z</time>
      </trkpt>
      <trkpt lat="46.35873" lon="-1.06248">
        <ele>1.6</ele>
        <time>2015-10-19T08:11:41Z</time>
      </trkpt>
      <trkpt lat="46.3589" lon="-1.06238">
        <ele>1.5</ele>
        <time>2015-10-19T08:11:55Z</time>
      </trkpt>
      <trkpt lat="46.35907" lon="-1.06228">
        <ele>1.9</ele>
        <time>2015-10-19T08:12:08Z</time>
      </trkpt>
      <trkpt lat="46.35924" lon="-1.06217">
        <ele>1.8</ele>
        <time>2015-10-19T08:12:21Z</time>
      </trkpt>
      <trkpt lat="46.35942" lon="-1.06208">
        <ele>1.6</ele>
        <time>2015-10-19T08:12:34Z</time>
      </trkpt>
      <trkpt lat="46.3596" lon="-1.06198">
        <ele>1.9</ele>
        <time>2015-10-19T08:12:47Z</time>
      </trkpt>
      <trkpt lat="46.35977" lon="-1.06188">
        <ele>1.9</ele>
        <time>2015-10-19T08:13:01Z</time>
      </trkpt>
      <trkpt lat="46.35994" lon="-1.0618">
        <ele>1.6</ele>
        <time>2015-10-19T08:13:14Z</time>
      </trkpt>
      <trkpt lat="46.36012" lon="-1.06171">
        <ele>1.6</ele>
        <time>2015-10-19T08:13:27Z</time>
      </trkpt>
      <trkpt lat="46.36029" lon="-1.06161">
        <ele>1.2</ele>
        <time>2015-10-19T08:13:40Z</time>
      </trkpt>
      <trkpt lat="46.36046" lon="-1.0615">
        <ele>1.9</ele>
        <time>2015-10-19T08:13:53Z</time>
      </trkpt>
      <trkpt lat="46.36063" lon="-1.06139">
        <ele>2</ele>
        <time>2015-10-19T08:14:07Z</time>
      </trkpt>
      <trkpt lat="46.36081" lon="-1.0613">
        <ele>2</ele>
        <time>2015-10-19T08:14:21Z</time>
      </trkpt>
      <trkpt lat="46.36099" lon="-1.0612">
        <ele>2</ele>
        <time>2015-10-19T08:14:35Z</time>
      </trkpt>
      <trkpt lat="46.36116" lon="-1.0611">
        <ele>1.8</ele>
        <time>2015-10-19T08:14:49Z</time>
      </trkpt>
      <trkpt lat="46.36134" lon="-1.06101">
        <ele>1.5</ele>
        <time>2015-10-19T08:15:03Z</time>
      </trkpt>
      <trkpt lat="46.36151" lon="-1.06091">
        <ele>1.8</ele>
        <time>2015-10-19T08:15:17Z</time>
      </trkpt>
      <trkpt lat="46.36168" lon="-1.06082">
        <ele>2</ele>
        <time>2015-10-19T08:15:29Z</time>
      </trkpt>
      <trkpt lat="46.36186" lon="-1.06072">
        <ele>1.6</ele>
        <time>2015-10-19T08:15:41Z</time>
      </trkpt>
      <trkpt lat="46.36203" lon="-1.06062">
        <ele>1.8</ele>
        <time>2015-10-19T08:15:55Z</time>
      </trkpt>
      <trkpt lat="46.36221" lon="-1.06053">
        <ele>2</ele>
        <time>2015-10-19T08:16:10Z</time>
      </trkpt>
      <trkpt lat="46.36239" lon="-1.06042">
        <ele>1.7</ele>
        <time>2015-10-19T08:16:24Z</time>
      </trkpt>
      <trkpt lat="46.36256" lon="-1.06032">
        <ele>1.9</ele>
        <time>2015-10-19T08:16:37Z</time>
      </trkpt>
      <trkpt lat="46.36268" lon="-1.06027">
        <ele>2</ele>
        <time>2015-10-19T08:16:47Z</time>
      </trkpt>
      <trkpt lat="46.36286" lon="-1.06017">
        <ele>2.3</ele>
        <time>2015-10-19T08:17:00Z</time>
      </trkpt>
      <trkpt lat="46.36303" lon="-1.06005">
        <ele>2.1</ele>
        <time>2015-10-19T08:17:14Z</time>
      </trkpt>
      <trkpt lat="46.36321" lon="-1.05995">
        <ele>1.6</ele>
        <time>2015-10-19T08:17:28Z</time>
      </trkpt>
      <trkpt lat="46.36336" lon="-1.05984">
        <ele>1.6</ele>
        <time>2015-10-19T08:17:40Z</time>
      </trkpt>
      <trkpt lat="46.36353" lon="-1.05975">
        <ele>2</ele>
        <time>2015-10-19T08:17:53Z</time>
      </trkpt>
      <trkpt lat="46.36371" lon="-1.05965">
        <ele>2</ele>
        <time>2015-10-19T08:18:07Z</time>
      </trkpt>
      <trkpt lat="46.36389" lon="-1.05957">
        <ele>2.1</ele>
        <time>2015-10-19T08:18:20Z</time>
      </trkpt>
      <trkpt lat="46.36406" lon="-1.05947">
        <ele>2.3</ele>
        <time>2015-10-19T08:18:35Z</time>
      </trkpt>
      <trkpt lat="46.36424" lon="-1.05936">
        <ele>2</ele>
        <time>2015-10-19T08:18:49Z</time>
      </trkpt>
      <trkpt lat="46.36442" lon="-1.05927">
        <ele>2</ele>
        <time>2015-10-19T08:19:02Z</time>
      </trkpt>
      <trkpt lat="46.3646" lon="-1.05917">
        <ele>2</ele>
        <time>2015-10-19T08:19:16Z</time>
      </trkpt>
      <trkpt lat="46.36471" lon="-1.05911">
        <ele>2</ele>
        <time>2015-10-19T08:19:26Z</time>
      </trkpt>
      <trkpt lat="46.36488" lon="-1.05901">
        <ele>2.3</ele>
        <time>2015-10-19T08:19:39Z</time>
      </trkpt>
      <trkpt lat="46.36506" lon="-1.0589">
        <ele>2.8</ele>
        <time>2015-10-19T08:19:53Z</time>
      </trkpt>
      <trkpt lat="46.36524" lon="-1.05882">
        <ele>2.1</ele>
        <time>2015-10-19T08:20:05Z</time>
      </trkpt>
      <trkpt lat="46.36541" lon="-1.05871">
        <ele>2</ele>
        <time>2015-10-19T08:20:18Z</time>
      </trkpt>
      <trkpt lat="46.36559" lon="-1.05861">
        <ele>2</ele>
        <time>2015-10-19T08:20:31Z</time>
      </trkpt>
      <trkpt lat="46.36576" lon="-1.05852">
        <ele>2</ele>
        <time>2015-10-19T08:20:44Z</time>
      </trkpt>
      <trkpt lat="46.36594" lon="-1.05843">
        <ele>2.1</ele>
        <time>2015-10-19T08:20:58Z</time>
      </trkpt>
      <trkpt lat="46.36611" lon="-1.05832">
        <ele>2</ele>
        <time>2015-10-19T08:21:12Z</time>
      </trkpt>
      <trkpt lat="46.36629" lon="-1.05821">
        <ele>1.9</ele>
        <time>2015-10-19T08:21:25Z</time>
      </trkpt>
      <trkpt lat="46.36646" lon="-1.05811">
        <ele>2.4</ele>
        <time>2015-10-19T08:21:38Z</time>
      </trkpt>
      <trkpt lat="46.36663" lon="-1.05803">
        <ele>2.1</ele>
        <time>2015-10-19T08:21:50Z</time>
      </trkpt>
      <trkpt lat="46.3668" lon="-1.05792">
        <ele>2</ele>
        <time>2015-10-19T08:22:04Z</time>
      </trkpt>
      <trkpt lat="46.36698" lon="-1.0578">
        <ele>1.9</ele>
        <time>2015-10-19T08:22:18Z</time>
      </trkpt>
      <trkpt lat="46.36716" lon="-1.05769">
        <ele>1.5</ele>
        <time>2015-10-19T08:22:32Z</time>
      </trkpt>
      <trkpt lat="46.36732" lon="-1.05758">
        <ele>2.1</ele>
        <time>2015-10-19T08:22:45Z</time>
      </trkpt>
      <trkpt lat="46.3675" lon="-1.05749">
        <ele>3</ele>
        <time>2015-10-19T08:23:01Z</time>
      </trkpt>
      <trkpt lat="46.36768" lon="-1.05738">
        <ele>1.9</ele>
        <time>2015-10-19T08:23:13Z</time>
      </trkpt>
      <trkpt lat="46.36785" lon="-1.05729">
        <ele>1.8</ele>
        <time>2015-10-19T08:23:26Z</time>
      </trkpt>
      <trkpt lat="46.36803" lon="-1.0572">
        <ele>2</ele>
        <time>2015-10-19T08:23:39Z</time>
      </trkpt>
      <trkpt lat="46.36819" lon="-1.05708">
        <ele>2.2</ele>
        <time>2015-10-19T08:23:52Z</time>
      </trkpt>
      <trkpt lat="46.36836" lon="-1.05697">
        <ele>2.9</ele>
        <time>2015-10-19T08:24:06Z</time>
      </trkpt>
      <trkpt lat="46.36847" lon="-1.05691">
        <ele>2.6</ele>
        <time>2015-10-19T08:24:16Z</time>
      </trkpt>
      <trkpt lat="46.3685" lon="-1.05691">
        <ele>2.5</ele>
        <time>2015-10-19T08:25:16Z</time>
      </trkpt>
      <trkpt lat="46.36867" lon="-1.05681">
        <ele>2.5</ele>
        <time>2015-10-19T08:25:29Z</time>
      </trkpt>
      <trkpt lat="46.36884" lon="-1.0567">
        <ele>2.9</ele>
        <time>2015-10-19T08:25:40Z</time>
      </trkpt>
      <trkpt lat="46.36901" lon="-1.05658">
        <ele>2.4</ele>
        <time>2015-10-19T08:25:52Z</time>
      </trkpt>
      <trkpt lat="46.36919" lon="-1.0565">
        <ele>2</ele>
        <time>2015-10-19T08:26:04Z</time>
      </trkpt>
      <trkpt lat="46.36937" lon="-1.05642">
        <ele>2.6</ele>
        <time>2015-10-19T08:26:17Z</time>
      </trkpt>
      <trkpt lat="46.36954" lon="-1.05632">
        <ele>2.3</ele>
        <time>2015-10-19T08:26:29Z</time>
      </trkpt>
      <trkpt lat="46.3697" lon="-1.05621">
        <ele>1.7</ele>
        <time>2015-10-19T08:26:43Z</time>
      </trkpt>
      <trkpt lat="46.36988" lon="-1.05613">
        <ele>2</ele>
        <time>2015-10-19T08:26:55Z</time>
      </trkpt>
      <trkpt lat="46.37005" lon="-1.05602">
        <ele>2</ele>
        <time>2015-10-19T08:27:07Z</time>
      </trkpt>
      <trkpt lat="46.37022" lon="-1.05591">
        <ele>2</ele>
        <time>2015-10-19T08:27:20Z</time>
      </trkpt>
      <trkpt lat="46.3704" lon="-1.05581">
        <ele>2</ele>
        <time>2015-10-19T08:27:32Z</time>
      </trkpt>
      <trkpt lat="46.37059" lon="-1.05572">
        <ele>2</ele>
        <time>2015-10-19T08:27:45Z</time>
      </trkpt>
      <trkpt lat="46.37077" lon="-1.05563">
        <ele>2.6</ele>
        <time>2015-10-19T08:27:58Z</time>
      </trkpt>
      <trkpt lat="46.37094" lon="-1.05554">
        <ele>2.6</ele>
        <time>2015-10-19T08:28:11Z</time>
      </trkpt>
      <trkpt lat="46.37111" lon="-1.05544">
        <ele>2</ele>
        <time>2015-10-19T08:28:24Z</time>
      </trkpt>
      <trkpt lat="46.37129" lon="-1.05532">
        <ele>2</ele>
        <time>2015-10-19T08:28:37Z</time>
      </trkpt>
      <trkpt lat="46.37145" lon="-1.0552">
        <ele>1.9</ele>
        <time>2015-10-19T08:28:50Z</time>
      </trkpt>
      <trkpt lat="46.37163" lon="-1.05511">
        <ele>2.2</ele>
        <time>2015-10-19T08:29:04Z</time>
      </trkpt>
      <trkpt lat="46.37182" lon="-1.05503">
        <ele>2.9</ele>
        <time>2015-10-19T08:29:17Z</time>
      </trkpt>
      <trkpt lat="46.372" lon="-1.05493">
        <ele>2.8</ele>
        <time>2015-10-19T08:29:30Z</time>
      </trkpt>
      <trkpt lat="46.37218" lon="-1.05483">
        <ele>2.7</ele>
        <time>2015-10-19T08:29:43Z</time>
      </trkpt>
      <trkpt lat="46.37235" lon="-1.05471">
        <ele>2.6</ele>
        <time>2015-10-19T08:29:56Z</time>
      </trkpt>
      <trkpt lat="46.37253" lon="-1.05462">
        <ele>2.4</ele>
        <time>2015-10-19T08:30:09Z</time>
      </trkpt>
      <trkpt lat="46.3727" lon="-1.05449">
        <ele>2.8</ele>
        <time>2015-10-19T08:30:22Z</time>
      </trkpt>
      <trkpt lat="46.37288" lon="-1.0544">
        <ele>3</ele>
        <time>2015-10-19T08:30:36Z</time>
      </trkpt>
      <trkpt lat="46.37305" lon="-1.05432">
        <ele>3.5</ele>
        <time>2015-10-19T08:30:48Z</time>
      </trkpt>
      <trkpt lat="46.37307" lon="-1.05432">
        <ele>3.5</ele>
        <time>2015-10-19T08:30:49Z</time>
      </trkpt>
      <trkpt lat="46.37309" lon="-1.05431">
        <ele>3.6</ele>
        <time>2015-10-19T08:32:19Z</time>
      </trkpt>
      <trkpt lat="46.3732" lon="-1.05424">
        <ele>4.2</ele>
        <time>2015-10-19T08:33:10Z</time>
      </trkpt>
      <trkpt lat="46.37338" lon="-1.05418">
        <ele>4.5</ele>
        <time>2015-10-19T08:33:27Z</time>
      </trkpt>
      <trkpt lat="46.37355" lon="-1.05409">
        <ele>2.9</ele>
        <time>2015-10-19T08:33:41Z</time>
      </trkpt>
      <trkpt lat="46.37374" lon="-1.05403">
        <ele>3.2</ele>
        <time>2015-10-19T08:33:53Z</time>
      </trkpt>
      <trkpt lat="46.37392" lon="-1.05395">
        <ele>3.8</ele>
        <time>2015-10-19T08:34:05Z</time>
      </trkpt>
      <trkpt lat="46.3741" lon="-1.05388">
        <ele>4</ele>
        <time>2015-10-19T08:34:16Z</time>
      </trkpt>
      <trkpt lat="46.37427" lon="-1.05379">
        <ele>3.3</ele>
        <time>2015-10-19T08:34:27Z</time>
      </trkpt>
      <trkpt lat="46.37445" lon="-1.05369">
        <ele>3.4</ele>
        <time>2015-10-19T08:34:38Z</time>
      </trkpt>
      <trkpt lat="46.37463" lon="-1.0536">
        <ele>4</ele>
        <time>2015-10-19T08:34:50Z</time>
      </trkpt>
      <trkpt lat="46.3748" lon="-1.05351">
        <ele>3.6</ele>
        <time>2015-10-19T08:35:02Z</time>
      </trkpt>
      <trkpt lat="46.37499" lon="-1.05344">
        <ele>3.6</ele>
        <time>2015-10-19T08:35:15Z</time>
      </trkpt>
      <trkpt lat="46.37513" lon="-1.05356">
        <ele>3.2</ele>
        <time>2015-10-19T08:35:45Z</time>
      </trkpt>
      <trkpt lat="46.37521" lon="-1.05381">
        <ele>3.7</ele>
        <time>2015-10-19T08:36:03Z</time>
      </trkpt>
      <trkpt lat="46.37522" lon="-1.05385">
        <ele>3.9</ele>
        <time>2015-10-19T08:36:06Z</time>
      </trkpt>
      <trkpt lat="46.37529" lon="-1.05411">
        <ele>4</ele>
        <time>2015-10-19T08:36:19Z</time>
      </trkpt>
      <trkpt lat="46.37537" lon="-1.05435">
        <ele>4</ele>
        <time>2015-10-19T08:36:33Z</time>
      </trkpt>
      <trkpt lat="46.37545" lon="-1.05461">
        <ele>4</ele>
        <time>2015-10-19T08:36:47Z</time>
      </trkpt>
      <trkpt lat="46.37553" lon="-1.05485">
        <ele>4</ele>
        <time>2015-10-19T08:37:01Z</time>
      </trkpt>
      <trkpt lat="46.37562" lon="-1.05508">
        <ele>4</ele>
        <time>2015-10-19T08:37:14Z</time>
      </trkpt>
      <trkpt lat="46.37569" lon="-1.05533">
        <ele>4</ele>
        <time>2015-10-19T08:37:28Z</time>
      </trkpt>
      <trkpt lat="46.37577" lon="-1.05559">
        <ele>4</ele>
        <time>2015-10-19T08:37:42Z</time>
      </trkpt>
      <trkpt lat="46.37585" lon="-1.05584">
        <ele>4</ele>
        <time>2015-10-19T08:37:56Z</time>
      </trkpt>
      <trkpt lat="46.37594" lon="-1.05607">
        <ele>4</ele>
        <time>2015-10-19T08:38:09Z</time>
      </trkpt>
      <trkpt lat="46.37605" lon="-1.05629">
        <ele>4</ele>
        <time>2015-10-19T08:38:22Z</time>
      </trkpt>
      <trkpt lat="46.3761" lon="-1.05654">
        <ele>4</ele>
        <time>2015-10-19T08:38:35Z</time>
      </trkpt>
      <trkpt lat="46.37615" lon="-1.0568">
        <ele>4</ele>
        <time>2015-10-19T08:38:47Z</time>
      </trkpt>
      <trkpt lat="46.37622" lon="-1.05706">
        <ele>4</ele>
        <time>2015-10-19T08:39:01Z</time>
      </trkpt>
      <trkpt lat="46.37628" lon="-1.0573">
        <ele>4</ele>
        <time>2015-10-19T08:39:13Z</time>
      </trkpt>
      <trkpt lat="46.37632" lon="-1.05757">
        <ele>4</ele>
        <time>2015-10-19T08:39:27Z</time>
      </trkpt>
      <trkpt lat="46.37632" lon="-1.05761">
        <ele>4</ele>
        <time>2015-10-19T08:39:29Z</time>
      </trkpt>
      <trkpt lat="46.37637" lon="-1.05787">
        <ele>4.3</ele>
        <time>2015-10-19T08:39:42Z</time>
      </trkpt>
      <trkpt lat="46.37641" lon="-1.05812">
        <ele>5</ele>
        <time>2015-10-19T08:39:55Z</time>
      </trkpt>
      <trkpt lat="46.37645" lon="-1.05835">
        <ele>5</ele>
        <time>2015-10-19T08:40:08Z</time>
      </trkpt>
      <trkpt lat="46.37652" lon="-1.0586">
        <ele>5</ele>
        <time>2015-10-19T08:40:23Z</time>
      </trkpt>
      <trkpt lat="46.37653" lon="-1.05863">
        <ele>5</ele>
        <time>2015-10-19T08:40:25Z</time>
      </trkpt>
      <trkpt lat="46.3766" lon="-1.05878">
        <ele>5.5</ele>
        <time>2015-10-19T08:40:34Z</time>
      </trkpt>
      <trkpt lat="46.37665" lon="-1.05903">
        <ele>6</ele>
        <time>2015-10-19T08:40:48Z</time>
      </trkpt>
      <trkpt lat="46.37667" lon="-1.05912">
        <ele>6</ele>
        <time>2015-10-19T08:40:53Z</time>
      </trkpt>
      <trkpt lat="46.37666" lon="-1.05919">
        <ele>6</ele>
        <time>2015-10-19T08:40:57Z</time>
      </trkpt>
      <trkpt lat="46.37659" lon="-1.05927">
        <ele>6</ele>
        <time>2015-10-19T08:41:03Z</time>
      </trkpt>
      <trkpt lat="46.37646" lon="-1.05931">
        <ele>6</ele>
        <time>2015-10-19T08:41:14Z</time>
      </trkpt>
      <trkpt lat="46.3763" lon="-1.05941">
        <ele>5.7</ele>
        <time>2015-10-19T08:41:28Z</time>
      </trkpt>
      <trkpt lat="46.37632" lon="-1.05964">
        <ele>5.9</ele>
        <time>2015-10-19T08:41:40Z</time>
      </trkpt>
      <trkpt lat="46.37635" lon="-1.0599">
        <ele>6</ele>
        <time>2015-10-19T08:41:55Z</time>
      </trkpt>
      <trkpt lat="46.37638" lon="-1.06017">
        <ele>6</ele>
        <time>2015-10-19T08:42:10Z</time>
      </trkpt>
      <trkpt lat="46.37644" lon="-1.06042">
        <ele>6</ele>
        <time>2015-10-19T08:42:24Z</time>
      </trkpt>
      <trkpt lat="46.37643" lon="-1.06066">
        <ele>6</ele>
        <time>2015-10-19T08:42:38Z</time>
      </trkpt>
      <trkpt lat="46.37626" lon="-1.06073">
        <ele>6</ele>
        <time>2015-10-19T08:42:53Z</time>
      </trkpt>
      <trkpt lat="46.37608" lon="-1.06078">
        <ele>5.9</ele>
        <time>2015-10-19T08:43:06Z</time>
      </trkpt>
      <trkpt lat="46.3759" lon="-1.06085">
        <ele>5.2</ele>
        <time>2015-10-19T08:43:17Z</time>
      </trkpt>
      <trkpt lat="46.37585" lon="-1.06086">
        <ele>5.1</ele>
        <time>2015-10-19T08:43:20Z</time>
      </trkpt>
      <trkpt lat="46.37567" lon="-1.06091">
        <ele>5</ele>
        <time>2015-10-19T08:43:34Z</time>
      </trkpt>
      <trkpt lat="46.37548" lon="-1.06099">
        <ele>4.9</ele>
        <time>2015-10-19T08:43:48Z</time>
      </trkpt>
      <trkpt lat="46.37535" lon="-1.06116">
        <ele>4.3</ele>
        <time>2015-10-19T08:44:02Z</time>
      </trkpt>
      <trkpt lat="46.37535" lon="-1.06118">
        <ele>4.3</ele>
        <time>2015-10-19T08:44:03Z</time>
      </trkpt>
      <trkpt lat="46.37541" lon="-1.06145">
        <ele>4.5</ele>
        <time>2015-10-19T08:44:15Z</time>
      </trkpt>
      <trkpt lat="46.37549" lon="-1.06169">
        <ele>4.7</ele>
        <time>2015-10-19T08:44:26Z</time>
      </trkpt>
      <trkpt lat="46.37556" lon="-1.06194">
        <ele>4</ele>
        <time>2015-10-19T08:44:37Z</time>
      </trkpt>
      <trkpt lat="46.3756" lon="-1.06219">
        <ele>4</ele>
        <time>2015-10-19T08:44:48Z</time>
      </trkpt>
      <trkpt lat="46.37568" lon="-1.06243">
        <ele>4</ele>
        <time>2015-10-19T08:45:00Z</time>
      </trkpt>
      <trkpt lat="46.37572" lon="-1.0627">
        <ele>4</ele>
        <time>2015-10-19T08:45:12Z</time>
      </trkpt>
      <trkpt lat="46.37577" lon="-1.06296">
        <ele>4</ele>
        <time>2015-10-19T08:45:24Z</time>
      </trkpt>
      <trkpt lat="46.37583" lon="-1.06321">
        <ele>4</ele>
        <time>2015-10-19T08:45:36Z</time>
      </trkpt>
      <trkpt lat="46.37589" lon="-1.06347">
        <ele>4</ele>
        <time>2015-10-19T08:45:48Z</time>
      </trkpt>
      <trkpt lat="46.37593" lon="-1.06373">
        <ele>4</ele>
        <time>2015-10-19T08:46:00Z</time>
      </trkpt>
      <trkpt lat="46.37597" lon="-1.06396">
        <ele>3.9</ele>
        <time>2015-10-19T08:46:11Z</time>
      </trkpt>
      <trkpt lat="46.37599" lon="-1.06409">
        <ele>3.7</ele>
        <time>2015-10-19T08:46:17Z</time>
      </trkpt>
      <trkpt lat="46.37599" lon="-1.06411">
        <ele>3.7</ele>
        <time>2015-10-19T08:46:18Z</time>
      </trkpt>
      <trkpt lat="46.37605" lon="-1.06437">
        <ele>3.8</ele>
        <time>2015-10-19T08:46:31Z</time>
      </trkpt>
      <trkpt lat="46.3761" lon="-1.06463">
        <ele>3.9</ele>
        <time>2015-10-19T08:46:43Z</time>
      </trkpt>
      <trkpt lat="46.37617" lon="-1.06478">
        <ele>3.7</ele>
        <time>2015-10-19T08:46:53Z</time>
      </trkpt>
      <trkpt lat="46.37626" lon="-1.06484">
        <ele>3.5</ele>
        <time>2015-10-19T08:47:05Z</time>
      </trkpt>
      <trkpt lat="46.37639" lon="-1.06493">
        <ele>3.8</ele>
        <time>2015-10-19T08:48:06Z</time>
      </trkpt>
      <trkpt lat="46.37655" lon="-1.06507">
        <ele>4</ele>
        <time>2015-10-19T08:48:21Z</time>
      </trkpt>
      <trkpt lat="46.37656" lon="-1.06508">
        <ele>4</ele>
        <time>2015-10-19T08:48:22Z</time>
      </trkpt>
      <trkpt lat="46.37657" lon="-1.06515">
        <ele>4</ele>
        <time>2015-10-19T08:48:26Z</time>
      </trkpt>
      <trkpt lat="46.3766" lon="-1.06534">
        <ele>4</ele>
        <time>2015-10-19T08:48:36Z</time>
      </trkpt>
      <trkpt lat="46.37665" lon="-1.06561">
        <ele>4</ele>
        <time>2015-10-19T08:48:51Z</time>
      </trkpt>
      <trkpt lat="46.3767" lon="-1.06587">
        <ele>4</ele>
        <time>2015-10-19T08:49:05Z</time>
      </trkpt>
      <trkpt lat="46.37673" lon="-1.066">
        <ele>4</ele>
        <time>2015-10-19T08:49:12Z</time>
      </trkpt>
      <trkpt lat="46.37675" lon="-1.06614">
        <ele>4</ele>
        <time>2015-10-19T08:49:20Z</time>
      </trkpt>
      <trkpt lat="46.37675" lon="-1.06617">
        <ele>4</ele>
        <time>2015-10-19T08:49:22Z</time>
      </trkpt>
      <trkpt lat="46.37666" lon="-1.06625">
        <ele>4</ele>
        <time>2015-10-19T08:49:31Z</time>
      </trkpt>
      <trkpt lat="46.37648" lon="-1.06629">
        <ele>4</ele>
        <time>2015-10-19T08:49:45Z</time>
      </trkpt>
      <trkpt lat="46.37631" lon="-1.06641">
        <ele>4</ele>
        <time>2015-10-19T08:49:59Z</time>
      </trkpt>
      <trkpt lat="46.37622" lon="-1.06648">
        <ele>4</ele>
        <time>2015-10-19T08:50:07Z</time>
      </trkpt>
      <trkpt lat="46.37623" lon="-1.06663">
        <ele>4</ele>
        <time>2015-10-19T08:50:15Z</time>
      </trkpt>
      <trkpt lat="46.37628" lon="-1.06688">
        <ele>4</ele>
        <time>2015-10-19T08:50:28Z</time>
      </trkpt>
      <trkpt lat="46.37628" lon="-1.0669">
        <ele>4</ele>
        <time>2015-10-19T08:50:29Z</time>
      </trkpt>
      <trkpt lat="46.37623" lon="-1.06706">
        <ele>4</ele>
        <time>2015-10-19T08:50:40Z</time>
      </trkpt>
      <trkpt lat="46.37608" lon="-1.0672">
        <ele>4</ele>
        <time>2015-10-19T08:50:54Z</time>
      </trkpt>
      <trkpt lat="46.37606" lon="-1.06723">
        <ele>4</ele>
        <time>2015-10-19T08:50:56Z</time>
      </trkpt>
      <trkpt lat="46.37607" lon="-1.06731">
        <ele>4</ele>
        <time>2015-10-19T08:51:01Z</time>
      </trkpt>
      <trkpt lat="46.37611" lon="-1.06757">
        <ele>3.8</ele>
        <time>2015-10-19T08:51:15Z</time>
      </trkpt>
      <trkpt lat="46.37616" lon="-1.06782">
        <ele>3.3</ele>
        <time>2015-10-19T08:51:29Z</time>
      </trkpt>
      <trkpt lat="46.37617" lon="-1.06788">
        <ele>3.5</ele>
        <time>2015-10-19T08:51:33Z</time>
      </trkpt>
      <trkpt lat="46.37615" lon="-1.06795">
        <ele>3.7</ele>
        <time>2015-10-19T08:51:38Z</time>
      </trkpt>
      <trkpt lat="46.37614" lon="-1.06821">
        <ele>4</ele>
        <time>2015-10-19T08:51:51Z</time>
      </trkpt>
      <trkpt lat="46.37618" lon="-1.06847">
        <ele>4</ele>
        <time>2015-10-19T08:52:05Z</time>
      </trkpt>
      <trkpt lat="46.37622" lon="-1.06873">
        <ele>4</ele>
        <time>2015-10-19T08:52:19Z</time>
      </trkpt>
      <trkpt lat="46.37626" lon="-1.069">
        <ele>4</ele>
        <time>2015-10-19T08:52:34Z</time>
      </trkpt>
      <trkpt lat="46.37633" lon="-1.06924">
        <ele>4</ele>
        <time>2015-10-19T08:52:48Z</time>
      </trkpt>
      <trkpt lat="46.37647" lon="-1.06943">
        <ele>4</ele>
        <time>2015-10-19T08:53:02Z</time>
      </trkpt>
      <trkpt lat="46.37647" lon="-1.06945">
        <ele>4</ele>
        <time>2015-10-19T08:53:03Z</time>
      </trkpt>
      <trkpt lat="46.37655" lon="-1.06968">
        <ele>4</ele>
        <time>2015-10-19T08:53:17Z</time>
      </trkpt>
      <trkpt lat="46.37661" lon="-1.06994">
        <ele>4</ele>
        <time>2015-10-19T08:53:31Z</time>
      </trkpt>
      <trkpt lat="46.37661" lon="-1.06997">
        <ele>4</ele>
        <time>2015-10-19T08:53:33Z</time>
      </trkpt>
      <trkpt lat="46.37659" lon="-1.0701">
        <ele>4</ele>
        <time>2015-10-19T08:53:41Z</time>
      </trkpt>
      <trkpt lat="46.37654" lon="-1.07011">
        <ele>4</ele>
        <time>2015-10-19T08:53:45Z</time>
      </trkpt>
      <trkpt lat="46.37636" lon="-1.07018">
        <ele>3.9</ele>
        <time>2015-10-19T08:54:01Z</time>
      </trkpt>
      <trkpt lat="46.37618" lon="-1.07025">
        <ele>3.3</ele>
        <time>2015-10-19T08:54:15Z</time>
      </trkpt>
      <trkpt lat="46.376" lon="-1.07032">
        <ele>3.1</ele>
        <time>2015-10-19T08:54:28Z</time>
      </trkpt>
      <trkpt lat="46.37583" lon="-1.0704">
        <ele>3</ele>
        <time>2015-10-19T08:54:41Z</time>
      </trkpt>
      <trkpt lat="46.37577" lon="-1.07042">
        <ele>3</ele>
        <time>2015-10-19T08:54:45Z</time>
      </trkpt>
      <trkpt lat="46.37577" lon="-1.07058">
        <ele>3</ele>
        <time>2015-10-19T08:54:53Z</time>
      </trkpt>
      <trkpt lat="46.37582" lon="-1.07084">
        <ele>3</ele>
        <time>2015-10-19T08:55:07Z</time>
      </trkpt>
      <trkpt lat="46.37583" lon="-1.07087">
        <ele>3</ele>
        <time>2015-10-19T08:55:09Z</time>
      </trkpt>
      <trkpt lat="46.37588" lon="-1.07112">
        <ele>3</ele>
        <time>2015-10-19T08:55:23Z</time>
      </trkpt>
      <trkpt lat="46.37588" lon="-1.07114">
        <ele>3</ele>
        <time>2015-10-19T08:55:24Z</time>
      </trkpt>
      <trkpt lat="46.37593" lon="-1.07139">
        <ele>3</ele>
        <time>2015-10-19T08:55:37Z</time>
      </trkpt>
      <trkpt lat="46.37593" lon="-1.07144">
        <ele>3</ele>
        <time>2015-10-19T08:55:39Z</time>
      </trkpt>
      <trkpt lat="46.37597" lon="-1.07171">
        <ele>3</ele>
        <time>2015-10-19T08:55:53Z</time>
      </trkpt>
      <trkpt lat="46.37602" lon="-1.07196">
        <ele>3</ele>
        <time>2015-10-19T08:56:06Z</time>
      </trkpt>
      <trkpt lat="46.37605" lon="-1.07224">
        <ele>3</ele>
        <time>2015-10-19T08:56:20Z</time>
      </trkpt>
      <trkpt lat="46.37607" lon="-1.0725">
        <ele>2.2</ele>
        <time>2015-10-19T08:56:34Z</time>
      </trkpt>
      <trkpt lat="46.37609" lon="-1.07278">
        <ele>3</ele>
        <time>2015-10-19T08:56:48Z</time>
      </trkpt>
      <trkpt lat="46.37609" lon="-1.07304">
        <ele>3</ele>
        <time>2015-10-19T08:57:01Z</time>
      </trkpt>
      <trkpt lat="46.37611" lon="-1.07331">
        <ele>3</ele>
        <time>2015-10-19T08:57:14Z</time>
      </trkpt>
      <trkpt lat="46.37613" lon="-1.07358">
        <ele>3</ele>
        <time>2015-10-19T08:57:27Z</time>
      </trkpt>
      <trkpt lat="46.37611" lon="-1.07384">
        <ele>3</ele>
        <time>2015-10-19T08:57:40Z</time>
      </trkpt>
      <trkpt lat="46.37612" lon="-1.07412">
        <ele>3.8</ele>
        <time>2015-10-19T08:57:54Z</time>
      </trkpt>
      <trkpt lat="46.37616" lon="-1.07432">
        <ele>3.5</ele>
        <time>2015-10-19T08:58:07Z</time>
      </trkpt>
      <trkpt lat="46.37627" lon="-1.0744">
        <ele>3.5</ele>
        <time>2015-10-19T08:58:17Z</time>
      </trkpt>
      <trkpt lat="46.37629" lon="-1.07459">
        <ele>3.8</ele>
        <time>2015-10-19T08:58:27Z</time>
      </trkpt>
      <trkpt lat="46.3763" lon="-1.07485">
        <ele>4</ele>
        <time>2015-10-19T08:58:41Z</time>
      </trkpt>
      <trkpt lat="46.37631" lon="-1.07513">
        <ele>3.9</ele>
        <time>2015-10-19T08:58:55Z</time>
      </trkpt>
      <trkpt lat="46.37632" lon="-1.07518">
        <ele>3.8</ele>
        <time>2015-10-19T08:58:58Z</time>
      </trkpt>
      <trkpt lat="46.37631" lon="-1.07532">
        <ele>3.7</ele>
        <time>2015-10-19T08:59:05Z</time>
      </trkpt>
      <trkpt lat="46.37632" lon="-1.07559">
        <ele>3.7</ele>
        <time>2015-10-19T08:59:18Z</time>
      </trkpt>
      <trkpt lat="46.37632" lon="-1.07586">
        <ele>3.8</ele>
        <time>2015-10-19T08:59:31Z</time>
      </trkpt>
      <trkpt lat="46.37631" lon="-1.0761">
        <ele>4</ele>
        <time>2015-10-19T08:59:43Z</time>
      </trkpt>
      <trkpt lat="46.37626" lon="-1.07614">
        <ele>4</ele>
        <time>2015-10-19T08:59:48Z</time>
      </trkpt>
      <trkpt lat="46.37608" lon="-1.07616">
        <ele>4</ele>
        <time>2015-10-19T09:00:01Z</time>
      </trkpt>
      <trkpt lat="46.37592" lon="-1.07626">
        <ele>4</ele>
        <time>2015-10-19T09:00:14Z</time>
      </trkpt>
      <trkpt lat="46.37592" lon="-1.07653">
        <ele>4</ele>
        <time>2015-10-19T09:00:28Z</time>
      </trkpt>
      <trkpt lat="46.37593" lon="-1.07681">
        <ele>4</ele>
        <time>2015-10-19T09:00:42Z</time>
      </trkpt>
      <trkpt lat="46.37598" lon="-1.07703">
        <ele>4</ele>
        <time>2015-10-19T09:00:55Z</time>
      </trkpt>
      <trkpt lat="46.37614" lon="-1.07706">
        <ele>4</ele>
        <time>2015-10-19T09:01:06Z</time>
      </trkpt>
      <trkpt lat="46.37618" lon="-1.07733">
        <ele>4</ele>
        <time>2015-10-19T09:01:20Z</time>
      </trkpt>
      <trkpt lat="46.37618" lon="-1.07735">
        <ele>4</ele>
        <time>2015-10-19T09:01:21Z</time>
      </trkpt>
      <trkpt lat="46.3762" lon="-1.07761">
        <ele>4</ele>
        <time>2015-10-19T09:01:34Z</time>
      </trkpt>
      <trkpt lat="46.37622" lon="-1.07788">
        <ele>4.1</ele>
        <time>2015-10-19T09:01:48Z</time>
      </trkpt>
      <trkpt lat="46.37626" lon="-1.07815">
        <ele>4.6</ele>
        <time>2015-10-19T09:02:02Z</time>
      </trkpt>
      <trkpt lat="46.3763" lon="-1.07843">
        <ele>4.7</ele>
        <time>2015-10-19T09:02:16Z</time>
      </trkpt>
      <trkpt lat="46.37633" lon="-1.07869">
        <ele>4.8</ele>
        <time>2015-10-19T09:02:29Z</time>
      </trkpt>
      <trkpt lat="46.37636" lon="-1.07895">
        <ele>4.9</ele>
        <time>2015-10-19T09:02:43Z</time>
      </trkpt>
      <trkpt lat="46.37637" lon="-1.07903">
        <ele>5</ele>
        <time>2015-10-19T09:02:48Z</time>
      </trkpt>
      <trkpt lat="46.3764" lon="-1.07929">
        <ele>5</ele>
        <time>2015-10-19T09:03:02Z</time>
      </trkpt>
      <trkpt lat="46.37644" lon="-1.07955">
        <ele>5.2</ele>
        <time>2015-10-19T09:03:15Z</time>
      </trkpt>
      <trkpt lat="46.37649" lon="-1.07981">
        <ele>5.4</ele>
        <time>2015-10-19T09:03:28Z</time>
      </trkpt>
      <trkpt lat="46.37654" lon="-1.08007">
        <ele>5.5</ele>
        <time>2015-10-19T09:03:42Z</time>
      </trkpt>
      <trkpt lat="46.37658" lon="-1.08032">
        <ele>5.7</ele>
        <time>2015-10-19T09:03:55Z</time>
      </trkpt>
      <trkpt lat="46.37664" lon="-1.08057">
        <ele>5.8</ele>
        <time>2015-10-19T09:04:09Z</time>
      </trkpt>
      <trkpt lat="46.37664" lon="-1.08074">
        <ele>5.3</ele>
        <time>2015-10-19T09:04:18Z</time>
      </trkpt>
      <trkpt lat="46.37646" lon="-1.08083">
        <ele>5</ele>
        <time>2015-10-19T09:04:32Z</time>
      </trkpt>
      <trkpt lat="46.37628" lon="-1.08089">
        <ele>5.1</ele>
        <time>2015-10-19T09:04:45Z</time>
      </trkpt>
      <trkpt lat="46.3761" lon="-1.08096">
        <ele>5</ele>
        <time>2015-10-19T09:04:58Z</time>
      </trkpt>
      <trkpt lat="46.37592" lon="-1.08102">
        <ele>4.5</ele>
        <time>2015-10-19T09:05:11Z</time>
      </trkpt>
      <trkpt lat="46.37574" lon="-1.08107">
        <ele>4.1</ele>
        <time>2015-10-19T09:05:24Z</time>
      </trkpt>
      <trkpt lat="46.37555" lon="-1.08113">
        <ele>4</ele>
        <time>2015-10-19T09:05:37Z</time>
      </trkpt>
      <trkpt lat="46.37537" lon="-1.08117">
        <ele>4</ele>
        <time>2015-10-19T09:05:49Z</time>
      </trkpt>
      <trkpt lat="46.37531" lon="-1.0812">
        <ele>4</ele>
        <time>2015-10-19T09:05:54Z</time>
      </trkpt>
      <trkpt lat="46.37513" lon="-1.08122">
        <ele>4</ele>
        <time>2015-10-19T09:06:08Z</time>
      </trkpt>
      <trkpt lat="46.37494" lon="-1.08125">
        <ele>4</ele>
        <time>2015-10-19T09:06:21Z</time>
      </trkpt>
      <trkpt lat="46.37487" lon="-1.08126">
        <ele>4</ele>
        <time>2015-10-19T09:06:27Z</time>
      </trkpt>
      <trkpt lat="46.37469" lon="-1.08125">
        <ele>3.9</ele>
        <time>2015-10-19T09:06:41Z</time>
      </trkpt>
      <trkpt lat="46.37461" lon="-1.08127">
        <ele>3.6</ele>
        <time>2015-10-19T09:06:47Z</time>
      </trkpt>
      <trkpt lat="46.37459" lon="-1.08134">
        <ele>3.5</ele>
        <time>2015-10-19T09:06:51Z</time>
      </trkpt>
      <trkpt lat="46.37459" lon="-1.08143">
        <ele>3.5</ele>
        <time>2015-10-19T09:06:56Z</time>
      </trkpt>
      <trkpt lat="46.3746" lon="-1.0817">
        <ele>3.5</ele>
        <time>2015-10-19T09:07:09Z</time>
      </trkpt>
      <trkpt lat="46.37457" lon="-1.08197">
        <ele>3.5</ele>
        <time>2015-10-19T09:07:22Z</time>
      </trkpt>
      <trkpt lat="46.37454" lon="-1.08225">
        <ele>3.3</ele>
        <time>2015-10-19T09:07:35Z</time>
      </trkpt>
      <trkpt lat="46.37453" lon="-1.08229">
        <ele>3.3</ele>
        <time>2015-10-19T09:07:37Z</time>
      </trkpt>
      <trkpt lat="46.37459" lon="-1.0824">
        <ele>3.5</ele>
        <time>2015-10-19T09:07:44Z</time>
      </trkpt>
      <trkpt lat="46.37477" lon="-1.08236">
        <ele>4</ele>
        <time>2015-10-19T09:07:55Z</time>
      </trkpt>
      <trkpt lat="46.37496" lon="-1.0823">
        <ele>4</ele>
        <time>2015-10-19T09:08:08Z</time>
      </trkpt>
      <trkpt lat="46.37513" lon="-1.08223">
        <ele>4.5</ele>
        <time>2015-10-19T09:08:20Z</time>
      </trkpt>
      <trkpt lat="46.37532" lon="-1.08223">
        <ele>4.8</ele>
        <time>2015-10-19T09:08:35Z</time>
      </trkpt>
      <trkpt lat="46.37533" lon="-1.08223">
        <ele>4.8</ele>
        <time>2015-10-19T09:08:36Z</time>
      </trkpt>
      <trkpt lat="46.37537" lon="-1.08222">
        <ele>4.7</ele>
        <time>2015-10-19T09:08:40Z</time>
      </trkpt>
      <trkpt lat="46.3754" lon="-1.08249">
        <ele>4</ele>
        <time>2015-10-19T09:08:54Z</time>
      </trkpt>
      <trkpt lat="46.37541" lon="-1.08276">
        <ele>4</ele>
        <time>2015-10-19T09:09:08Z</time>
      </trkpt>
      <trkpt lat="46.37543" lon="-1.08298">
        <ele>4</ele>
        <time>2015-10-19T09:09:19Z</time>
      </trkpt>
      <trkpt lat="46.37546" lon="-1.08323">
        <ele>4</ele>
        <time>2015-10-19T09:09:34Z</time>
      </trkpt>
      <trkpt lat="46.37547" lon="-1.08342">
        <ele>3.9</ele>
        <time>2015-10-19T09:09:45Z</time>
      </trkpt>
      <trkpt lat="46.37552" lon="-1.08348">
        <ele>3.9</ele>
        <time>2015-10-19T09:09:52Z</time>
      </trkpt>
      <trkpt lat="46.37564" lon="-1.0835">
        <ele>4</ele>
        <time>2015-10-19T09:10:11Z</time>
      </trkpt>
      <trkpt lat="46.37569" lon="-1.08372">
        <ele>4</ele>
        <time>2015-10-19T09:10:55Z</time>
      </trkpt>
      <trkpt lat="46.37566" lon="-1.08366">
        <ele>4</ele>
        <time>2015-10-19T09:12:27Z</time>
      </trkpt>
    </trkseg>
  </trk>
</gpx>